createdAt,value
2018-12-18T00:00:47.081Z,25.40
2018-12-18T00:03:15.430Z,20.10
2018-12-18T00:05:43.614Z,26.15
2018-12-18T00:08:11.850Z,25.55
2018-12-18T00:10:45.471Z,29.77
2018-12-18T00:13:14.345Z,29.10
2018-12-18T00:15:42.580Z,19.05
2018-12-18T00:18:10.882Z,27.95
2018-12-18T00:20:39.645Z,29.85
2018-12-18T00:23:07.862Z,28.25
2018-12-18T00:25:36.185Z,24.32
2018-12-18T00:28:04.310Z,23.40
2018-12-18T00:30:33.355Z,26.52
2018-12-18T00:33:01.720Z,21.45
2018-12-18T00:35:30.330Z,28.45
2018-12-18T00:37:58.728Z,27.98
2018-12-18T00:40:27.548Z,22.32
2018-12-18T00:42:55.794Z,19.98
2018-12-18T00:45:24.157Z,24.35
2018-12-18T00:47:52.910Z,27.10
2018-12-18T00:50:21.359Z,32.80
2018-12-18T00:52:49.586Z,9.65
2018-12-18T00:55:17.738Z,15.85
2018-12-18T00:57:47.078Z,19.60
2018-12-18T01:00:15.576Z,22.90
2018-12-18T01:02:43.766Z,26.00
2018-12-18T01:05:12.068Z,19.98
2018-12-18T01:07:40.212Z,25.95
2018-12-18T01:10:08.516Z,30.20
2018-12-18T01:12:36.958Z,26.23
2018-12-18T01:15:05.440Z,22.58
2018-12-18T01:17:34.046Z,23.32
2018-12-18T01:20:03.346Z,27.93
2018-12-18T01:22:31.557Z,23.62
2018-12-18T01:24:59.897Z,20.20
2018-12-18T01:27:28.273Z,24.43
2018-12-18T01:29:56.695Z,23.27
2018-12-18T01:32:25.766Z,18.62
2018-12-18T01:34:53.899Z,20.57
2018-12-18T01:37:22.544Z,15.98
2018-12-18T01:39:51.851Z,18.00
2018-12-18T01:42:20.068Z,20.20
2018-12-18T01:44:48.244Z,29.70
2018-12-18T01:47:16.715Z,24.65
2018-12-18T01:49:45.362Z,23.22
2018-12-18T01:52:13.532Z,20.48
2018-12-18T02:01:28.367Z,29.85
2018-12-18T02:03:56.645Z,30.35
2018-12-18T02:06:24.883Z,29.37
2018-12-18T02:08:53.241Z,25.90
2018-12-18T02:11:21.348Z,29.60
2018-12-18T02:13:49.906Z,30.85
2018-12-18T02:16:18.132Z,33.00
2018-12-18T02:18:46.362Z,28.80
2018-12-18T02:21:14.600Z,29.20
2018-12-18T02:23:43.103Z,30.02
2018-12-18T02:26:11.307Z,30.90
2018-12-18T02:28:39.492Z,29.12
2018-12-18T02:31:08.020Z,25.80
2018-12-18T02:33:36.334Z,26.02
2018-12-18T02:36:04.793Z,22.25
2018-12-18T02:38:32.918Z,25.90
2018-12-18T02:41:01.189Z,29.57
2018-12-18T02:43:29.494Z,23.98
2018-12-18T02:45:57.578Z,32.17
2018-12-18T02:48:26.066Z,28.30
2018-12-18T02:50:56.130Z,26.55
2018-12-18T02:53:24.501Z,26.68
2018-12-18T02:55:52.841Z,31.25
2018-12-18T02:58:21.081Z,25.77
2018-12-18T03:00:50.410Z,27.85
2018-12-18T03:03:18.686Z,32.00
2018-12-18T03:05:46.899Z,31.05
2018-12-18T03:08:15.028Z,31.68
2018-12-18T03:10:43.429Z,30.80
2018-12-18T03:13:11.996Z,31.00
2018-12-18T03:15:40.227Z,32.08
2018-12-18T03:18:08.447Z,30.80
2018-12-18T03:20:36.640Z,29.25
2018-12-18T03:23:04.920Z,29.72
2018-12-18T03:25:34.239Z,28.10
2018-12-18T03:28:02.512Z,34.23
2018-12-18T03:30:30.953Z,31.10
2018-12-18T03:32:59.831Z,29.15
2018-12-18T03:35:28.141Z,29.95
2018-12-18T03:37:56.850Z,31.55
2018-12-18T03:40:25.106Z,29.85
2018-12-18T03:42:53.526Z,34.03
2018-12-18T03:45:21.855Z,27.60
2018-12-18T03:47:50.343Z,27.85
2018-12-18T03:50:18.708Z,27.40
2018-12-18T03:52:46.953Z,25.68
2018-12-18T03:55:15.220Z,29.23
2018-12-18T03:57:43.458Z,28.83
2018-12-18T04:00:12.251Z,26.57
2018-12-18T04:02:40.460Z,27.50
2018-12-18T04:05:08.754Z,27.00
2018-12-18T04:07:37.480Z,26.20
2018-12-18T04:10:06.659Z,30.82
2018-12-18T04:12:34.912Z,30.32
2018-12-18T04:15:03.143Z,23.35
2018-12-18T04:17:31.367Z,28.07
2018-12-18T04:19:59.551Z,24.60
2018-12-18T04:22:27.826Z,30.65
2018-12-18T04:24:56.177Z,24.18
2018-12-18T04:27:25.506Z,23.83
2018-12-18T04:29:54.452Z,24.85
2018-12-18T04:32:23.230Z,11.50
2018-12-18T04:34:51.497Z,14.55
2018-12-18T04:37:19.631Z,15.83
2018-12-18T04:39:47.830Z,21.77
2018-12-18T04:42:15.921Z,23.02
2018-12-18T04:44:44.338Z,20.65
2018-12-18T04:47:12.758Z,15.08
2018-12-18T04:49:41.324Z,17.48
2018-12-18T04:52:09.612Z,30.68
2018-12-18T04:54:37.840Z,17.82
2018-12-18T04:57:06.171Z,20.68
2018-12-18T04:59:34.648Z,17.65
2018-12-18T05:02:02.827Z,15.70
2018-12-18T05:04:30.943Z,21.30
2018-12-18T05:06:59.647Z,18.52
2018-12-18T05:09:28.092Z,17.48
2018-12-18T05:11:56.209Z,20.05
2018-12-18T05:14:24.984Z,15.23
2018-12-18T05:16:53.582Z,27.30
2018-12-18T05:19:21.773Z,24.57
2018-12-18T05:21:50.046Z,16.75
2018-12-18T05:24:18.459Z,19.00
2018-12-18T05:26:46.613Z,23.38
2018-12-18T05:29:15.397Z,20.75
2018-12-18T05:31:43.570Z,16.77
2018-12-18T05:34:11.845Z,18.67
2018-12-18T05:36:40.238Z,16.48
2018-12-18T05:39:08.790Z,15.35
2018-12-18T05:41:37.039Z,18.80
2018-12-18T05:44:05.318Z,19.70
2018-12-18T05:46:33.449Z,18.60
2018-12-18T05:49:01.860Z,20.57
2018-12-18T05:51:30.050Z,16.67
2018-12-18T05:53:58.325Z,21.40
2018-12-18T05:56:26.545Z,17.57
2018-12-18T05:58:54.780Z,18.57
2018-12-18T06:01:23.360Z,15.05
2018-12-18T06:03:51.714Z,19.32
2018-12-18T06:06:19.913Z,14.60
2018-12-18T06:08:48.176Z,15.80
2018-12-18T06:11:17.357Z,19.50
2018-12-18T06:13:45.442Z,20.05
2018-12-18T06:16:13.663Z,17.85
2018-12-18T06:18:42.002Z,18.98
2018-12-18T06:21:10.894Z,12.90
2018-12-18T06:23:39.102Z,17.55
2018-12-18T06:26:10.526Z,14.83
2018-12-18T06:28:39.026Z,19.57
2018-12-18T06:31:07.555Z,26.68
2018-12-18T06:33:35.865Z,17.40
2018-12-18T06:36:04.191Z,16.87
2018-12-18T06:38:32.341Z,13.78
2018-12-18T06:41:00.529Z,25.60
2018-12-18T06:43:29.094Z,18.92
2018-12-18T06:45:57.206Z,15.53
2018-12-18T06:48:25.752Z,14.93
2018-12-18T06:50:53.957Z,18.40
2018-12-18T06:53:22.352Z,15.03
2018-12-18T06:55:50.983Z,19.17
2018-12-18T06:58:19.497Z,19.75
2018-12-18T07:00:48.006Z,17.55
2018-12-18T07:03:16.269Z,17.67
2018-12-18T07:05:44.632Z,14.87
2018-12-18T07:08:12.909Z,16.67
2018-12-18T07:10:41.588Z,13.30
2018-12-18T07:13:09.706Z,16.23
2018-12-18T07:15:38.027Z,17.40
2018-12-18T07:18:06.557Z,19.82
2018-12-18T07:20:34.926Z,22.10
2018-12-18T07:23:03.122Z,17.98
2018-12-18T07:25:31.217Z,16.20
2018-12-18T07:27:59.644Z,17.87
2018-12-18T07:30:28.267Z,20.60
2018-12-18T07:32:56.438Z,16.15
2018-12-18T07:35:24.708Z,21.85
2018-12-18T07:37:52.894Z,24.98
2018-12-18T07:40:21.257Z,21.87
2018-12-18T07:42:49.523Z,20.70
2018-12-18T07:45:17.812Z,19.17
2018-12-18T07:47:46.539Z,20.12
2018-12-18T07:50:14.796Z,17.65
2018-12-18T07:52:42.976Z,21.52
2018-12-18T07:55:11.172Z,15.53
2018-12-18T07:57:39.360Z,18.73
2018-12-18T08:00:08.754Z,17.67
2018-12-18T08:02:36.870Z,16.65
2018-12-18T08:05:06.491Z,19.52
2018-12-18T08:07:34.766Z,14.25
2018-12-18T08:10:02.955Z,12.23
2018-12-18T08:12:31.051Z,15.05
2018-12-18T08:14:59.276Z,15.32
2018-12-18T08:17:27.805Z,15.55
2018-12-18T08:19:56.189Z,15.08
2018-12-18T08:22:24.588Z,14.20
2018-12-18T08:24:52.866Z,17.10
2018-12-18T08:27:21.442Z,16.32
2018-12-18T08:29:49.838Z,13.72
2018-12-18T08:32:18.131Z,18.23
2018-12-18T08:34:46.312Z,14.45
2018-12-18T08:37:14.552Z,13.08
2018-12-18T08:39:42.749Z,11.35
2018-12-18T08:42:11.007Z,13.05
2018-12-18T08:44:39.192Z,11.08
2018-12-18T08:47:07.463Z,11.35
2018-12-18T08:49:35.938Z,13.30
2018-12-18T08:52:04.113Z,10.50
2018-12-18T08:54:32.439Z,10.87
2018-12-18T08:57:00.619Z,16.60
2018-12-18T08:59:30.247Z,22.60
2018-12-18T09:01:58.551Z,24.70
2018-12-18T09:04:26.841Z,45.23
2018-12-18T09:06:55.017Z,54.73
2018-12-18T09:09:23.243Z,44.07
2018-12-18T09:11:51.566Z,126.47
2018-12-18T09:14:20.042Z,32.57
2018-12-18T09:16:54.144Z,61.00
2018-12-18T09:19:22.367Z,64.37
2018-12-18T09:21:50.683Z,71.77
2018-12-18T09:24:18.883Z,35.70
2018-12-18T09:26:47.051Z,19.20
2018-12-18T09:29:21.254Z,100.07
2018-12-18T09:31:49.838Z,22.53
2018-12-18T09:34:18.047Z,55.60
2018-12-18T09:36:46.433Z,25.70
2018-12-18T09:39:22.228Z,24.87
2018-12-18T09:41:52.377Z,15.40
2018-12-18T09:44:20.674Z,13.53
2018-12-18T09:46:48.946Z,32.33
2018-12-18T09:49:17.601Z,16.27
2018-12-18T09:51:45.834Z,52.13
2018-12-18T09:54:13.958Z,18.13
2018-12-18T09:56:47.648Z,16.57
2018-12-18T09:59:16.807Z,32.77
2018-12-18T10:01:45.150Z,13.80
2018-12-18T10:04:13.646Z,10.10
2018-12-18T10:06:42.036Z,10.73
2018-12-18T10:09:10.363Z,9.77
2018-12-18T10:11:38.738Z,13.53
2018-12-18T10:14:07.587Z,10.90
2018-12-18T10:16:35.833Z,11.60
2018-12-18T10:19:04.254Z,10.00
2018-12-18T10:21:32.386Z,13.33
2018-12-18T10:24:00.695Z,11.63
2018-12-18T10:26:28.776Z,8.87
2018-12-18T10:28:58.133Z,8.93
2018-12-18T10:31:26.846Z,12.20
2018-12-18T10:33:55.132Z,8.50
2018-12-18T10:36:23.487Z,7.60
2018-12-18T10:38:51.850Z,7.93
2018-12-18T10:41:19.932Z,6.40
2018-12-18T10:43:48.326Z,9.93
2018-12-18T10:46:16.566Z,7.20
2018-12-18T10:48:44.859Z,5.87
2018-12-18T10:51:13.181Z,8.70
2018-12-18T10:53:41.350Z,8.83
2018-12-18T10:56:09.555Z,5.63
2018-12-18T10:58:37.811Z,7.07
2018-12-18T11:01:12.082Z,10.87
2018-12-18T11:03:40.470Z,8.57
2018-12-18T11:06:10.037Z,7.67
2018-12-18T11:08:39.308Z,5.87
2018-12-18T11:11:07.617Z,5.93
2018-12-18T11:13:35.903Z,6.50
2018-12-18T11:16:04.192Z,6.13
2018-12-18T11:18:32.835Z,6.77
2018-12-18T11:21:01.187Z,7.13
2018-12-18T11:23:30.381Z,7.53
2018-12-18T11:25:58.657Z,7.70
2018-12-18T11:28:26.979Z,9.00
2018-12-18T11:30:55.711Z,5.50
2018-12-18T11:33:24.077Z,6.87
2018-12-18T11:35:52.254Z,7.07
2018-12-18T11:38:20.501Z,8.00
2018-12-18T11:40:48.702Z,5.63
2018-12-18T11:43:16.874Z,5.43
2018-12-18T11:45:45.449Z,8.73
2018-12-18T11:48:13.737Z,6.60
2018-12-18T11:50:41.967Z,5.70
2018-12-18T11:53:10.271Z,5.57
2018-12-18T11:55:38.935Z,6.10
2018-12-18T11:58:07.086Z,5.70
2018-12-18T12:00:35.736Z,8.80
2018-12-18T12:03:04.570Z,5.10
2018-12-18T12:05:33.754Z,5.23
2018-12-18T12:08:02.025Z,4.90
2018-12-18T12:10:30.342Z,4.90
2018-12-18T12:12:58.600Z,8.77
2018-12-18T12:15:26.797Z,5.00
2018-12-18T12:17:55.446Z,5.20
2018-12-18T12:20:23.847Z,4.80
2018-12-18T12:22:52.019Z,5.20
2018-12-18T12:25:20.541Z,5.23
2018-12-18T12:27:54.283Z,4.77
2018-12-18T12:30:23.021Z,8.67
2018-12-18T12:32:51.142Z,5.33
2018-12-18T12:35:19.570Z,4.93
2018-12-18T12:37:47.734Z,12.13
2018-12-18T12:40:15.827Z,5.83
2018-12-18T12:42:44.152Z,4.10
2018-12-18T12:45:12.377Z,4.40
2018-12-18T12:47:40.729Z,4.17
2018-12-18T12:50:09.479Z,7.30
2018-12-18T12:52:37.903Z,8.50
2018-12-18T12:55:06.311Z,3.83
2018-12-18T12:57:34.432Z,6.60
2018-12-18T13:00:03.073Z,8.53
2018-12-18T13:02:31.280Z,4.90
2018-12-18T13:04:59.855Z,5.03
2018-12-18T13:07:28.050Z,7.30
2018-12-18T13:09:56.203Z,6.00
2018-12-18T13:12:24.374Z,5.20
2018-12-18T13:14:52.902Z,4.77
2018-12-18T13:17:21.349Z,4.20
2018-12-18T13:19:49.570Z,4.73
2018-12-18T13:22:19.219Z,5.10
2018-12-18T13:24:47.847Z,4.40
2018-12-18T13:27:16.086Z,5.67
2018-12-18T13:29:46.177Z,6.53
2018-12-18T13:32:14.365Z,6.47
2018-12-18T13:34:42.742Z,4.00
2018-12-18T13:37:10.823Z,4.80
2018-12-18T13:39:39.491Z,3.20
2018-12-18T13:42:07.672Z,7.43
2018-12-18T13:44:36.384Z,4.67
2018-12-18T13:47:04.790Z,3.90
2018-12-18T13:49:33.665Z,5.73
2018-12-18T13:52:01.892Z,4.93
2018-12-18T13:54:30.691Z,5.43
2018-12-18T13:56:58.900Z,4.67
2018-12-18T13:59:27.874Z,5.60
2018-12-18T14:01:56.701Z,4.70
2018-12-18T14:04:24.866Z,4.43
2018-12-18T14:06:53.170Z,4.93
2018-12-18T14:09:21.839Z,4.73
2018-12-18T14:11:50.010Z,5.87
2018-12-18T14:14:19.174Z,4.57
2018-12-18T14:16:47.575Z,4.53
2018-12-18T14:19:15.691Z,6.30
2018-12-18T14:21:43.889Z,3.07
2018-12-18T14:24:12.131Z,2.00
2018-12-18T14:26:40.474Z,4.30
2018-12-18T14:29:09.234Z,2.13
2018-12-18T14:31:37.767Z,5.13
2018-12-18T14:34:07.814Z,4.67
2018-12-18T14:36:36.061Z,3.43
2018-12-18T14:39:06.611Z,5.87
2018-12-18T14:41:35.020Z,3.70
2018-12-18T14:44:04.155Z,4.47
2018-12-18T14:46:32.265Z,4.53
2018-12-18T14:49:00.707Z,3.97
2018-12-18T14:51:28.939Z,3.50
2018-12-18T14:53:57.225Z,4.03
2018-12-18T14:56:26.117Z,3.58
2018-12-18T14:58:54.836Z,3.10
2018-12-18T15:01:23.615Z,4.67
2018-12-18T15:03:51.754Z,4.03
2018-12-18T15:06:19.990Z,4.40
2018-12-18T15:08:48.217Z,6.22
2018-12-18T15:11:16.377Z,4.08
2018-12-18T15:13:45.210Z,3.35
2018-12-18T15:16:13.826Z,3.90
2018-12-18T15:18:42.194Z,5.00
2018-12-18T15:21:10.419Z,6.12
2018-12-18T15:23:38.831Z,4.00
2018-12-18T15:26:07.159Z,3.35
2018-12-18T15:28:35.386Z,4.75
2018-12-18T15:31:04.001Z,7.58
2018-12-18T15:33:32.594Z,11.90
2018-12-18T15:36:01.029Z,4.03
2018-12-18T15:38:29.900Z,4.83
2018-12-18T15:40:58.078Z,4.45
2018-12-18T15:43:26.173Z,7.83
2018-12-18T15:45:54.402Z,5.50
2018-12-18T15:48:22.896Z,6.50
2018-12-18T15:50:51.130Z,3.95
2018-12-18T15:53:19.438Z,4.30
2018-12-18T15:55:48.033Z,9.83
2018-12-18T15:58:16.255Z,5.08
2018-12-18T16:00:45.258Z,4.30
2018-12-18T16:03:13.479Z,4.28
2018-12-18T16:05:42.299Z,5.67
2018-12-18T16:08:10.990Z,7.72
2018-12-18T16:10:39.065Z,5.30
2018-12-18T16:13:08.350Z,5.60
2018-12-18T16:15:36.542Z,6.42
2018-12-18T16:18:04.752Z,5.75
2018-12-18T16:20:33.197Z,6.90
2018-12-18T16:23:01.570Z,5.97
2018-12-18T16:25:29.881Z,5.80
2018-12-18T16:27:57.999Z,5.15
2018-12-18T16:30:26.533Z,4.50
2018-12-18T16:32:54.602Z,7.05
2018-12-18T16:35:22.800Z,6.08
2018-12-18T16:37:51.024Z,5.25
2018-12-18T16:40:19.436Z,6.15
2018-12-18T16:42:47.776Z,6.28
2018-12-18T16:45:16.251Z,6.08
2018-12-18T16:47:44.841Z,5.80
2018-12-18T16:50:13.788Z,6.25
2018-12-18T16:52:42.013Z,13.48
2018-12-18T16:55:10.302Z,9.53
2018-12-18T16:57:39.659Z,6.70
2018-12-18T17:00:10.054Z,12.13
2018-12-18T17:02:38.423Z,10.10
2018-12-18T17:05:07.718Z,7.47
2018-12-18T17:07:36.089Z,7.20
2018-12-18T17:10:04.948Z,6.83
2018-12-18T17:12:33.340Z,6.92
2018-12-18T17:15:01.495Z,6.70
2018-12-18T17:17:29.894Z,6.80
2018-12-18T17:19:58.056Z,6.80
2018-12-18T17:22:26.384Z,8.13
2018-12-18T17:24:54.623Z,6.55
2018-12-18T17:27:22.688Z,6.85
2018-12-18T17:29:51.054Z,8.58
2018-12-18T17:32:19.598Z,6.35
2018-12-18T17:34:47.752Z,9.20
2018-12-18T17:37:16.065Z,5.75
2018-12-18T17:39:44.223Z,5.70
2018-12-18T17:42:12.846Z,6.12
2018-12-18T17:44:41.714Z,6.70
2018-12-18T17:47:10.161Z,6.03
2018-12-18T17:49:39.208Z,6.25
2018-12-18T17:52:07.772Z,6.92
2018-12-18T17:54:36.150Z,6.25
2018-12-18T17:57:05.053Z,7.83
2018-12-18T17:59:33.900Z,6.83
2018-12-18T18:02:02.265Z,7.67
2018-12-18T18:04:30.346Z,7.08
2018-12-18T18:06:58.806Z,5.97
2018-12-18T18:09:27.009Z,9.35
2018-12-18T18:11:55.270Z,7.12
2018-12-18T18:14:23.675Z,9.28
2018-12-18T18:16:52.322Z,9.40
2018-12-18T18:19:20.590Z,9.80
2018-12-18T18:21:48.862Z,10.30
2018-12-18T18:24:17.360Z,10.53
2018-12-18T18:26:45.519Z,8.68
2018-12-18T18:29:13.776Z,10.20
2018-12-18T18:31:42.254Z,9.68
2018-12-18T18:34:10.732Z,10.32
2018-12-18T18:36:39.354Z,11.43
2018-12-18T18:39:08.157Z,8.85
2018-12-18T18:41:36.534Z,8.35
2018-12-18T18:44:05.404Z,8.20
2018-12-18T18:46:33.511Z,9.18
2018-12-18T18:49:02.577Z,11.35
2018-12-18T18:51:31.342Z,7.80
2018-12-18T18:53:59.578Z,7.47
2018-12-18T18:56:28.136Z,7.35
2018-12-18T18:58:56.322Z,7.58
2018-12-18T19:01:26.269Z,8.25
2018-12-18T19:03:54.612Z,8.63
2018-12-18T19:06:22.791Z,6.05
2018-12-18T19:08:51.259Z,6.95
2018-12-18T19:11:19.455Z,9.33
2018-12-18T19:13:47.651Z,6.47
2018-12-18T19:16:15.873Z,7.90
2018-12-18T19:18:44.052Z,7.45
2018-12-18T19:21:12.504Z,8.63
2018-12-18T19:23:40.715Z,9.10
2018-12-18T19:26:08.853Z,6.92
2018-12-18T19:28:36.998Z,8.05
2018-12-18T19:31:05.562Z,7.75
2018-12-18T19:33:36.775Z,7.58
2018-12-18T19:36:03.988Z,7.30
2018-12-18T19:38:32.818Z,8.38
2018-12-18T19:41:01.005Z,7.53
2018-12-18T19:43:29.450Z,8.15
2018-12-18T19:45:57.646Z,8.60
2018-12-18T19:48:26.610Z,7.92
2018-12-18T19:50:55.599Z,7.78
2018-12-18T19:53:24.186Z,9.25
2018-12-18T19:55:52.448Z,7.00
2018-12-18T19:58:20.575Z,11.48
2018-12-18T20:00:50.390Z,10.63
2018-12-18T20:03:18.589Z,7.10
2018-12-18T20:05:46.773Z,8.00
2018-12-18T20:08:15.916Z,8.68
2018-12-18T20:10:44.116Z,8.95
2018-12-18T20:13:12.671Z,11.63
2018-12-18T20:15:40.853Z,9.85
2018-12-18T20:18:09.135Z,9.83
2018-12-18T20:20:37.692Z,8.05
2018-12-18T20:23:06.065Z,8.25
2018-12-18T20:25:34.790Z,8.40
2018-12-18T20:28:02.990Z,9.50
2018-12-18T20:30:32.753Z,9.35
2018-12-18T20:33:00.948Z,9.35
2018-12-18T20:35:29.123Z,8.90
2018-12-18T20:37:57.369Z,10.13
2018-12-18T20:40:25.554Z,9.78
2018-12-18T20:42:53.830Z,11.25
2018-12-18T20:45:22.096Z,10.35
2018-12-18T20:47:50.273Z,12.07
2018-12-18T20:50:18.709Z,11.28
2018-12-18T20:52:46.835Z,12.85
2018-12-18T20:55:15.034Z,9.98
2018-12-18T20:57:43.250Z,10.53
2018-12-18T21:00:13.281Z,10.90
2018-12-18T21:02:41.527Z,11.18
2018-12-18T21:05:09.963Z,10.93
2018-12-18T21:07:38.244Z,12.73
2018-12-18T21:10:08.013Z,11.22
2018-12-18T21:12:36.549Z,13.22
2018-12-18T21:15:06.506Z,12.40
2018-12-18T21:17:34.953Z,12.50
2018-12-18T21:20:03.647Z,11.43
2018-12-18T21:22:32.172Z,13.72
2018-12-18T21:25:00.416Z,13.40
2018-12-18T21:27:28.819Z,11.10
2018-12-18T21:29:57.633Z,11.75
2018-12-18T21:32:25.875Z,12.23
2018-12-18T21:34:54.244Z,15.60
2018-12-18T21:37:22.582Z,14.90
2018-12-18T21:39:51.083Z,16.95
2018-12-18T21:42:19.410Z,13.55
2018-12-18T21:44:47.798Z,15.03
2018-12-18T21:47:15.975Z,11.85
2018-12-18T21:49:44.588Z,14.90
2018-12-18T21:52:13.029Z,15.78
2018-12-18T21:54:41.402Z,14.35
2018-12-18T21:57:10.290Z,16.73
2018-12-18T21:59:39.177Z,16.95
2018-12-18T22:02:07.504Z,12.90
2018-12-18T22:04:35.739Z,16.02
2018-12-18T22:07:04.775Z,15.05
2018-12-18T22:09:33.003Z,15.38
2018-12-18T22:12:01.235Z,17.65
2018-12-18T22:14:29.803Z,16.65
2018-12-18T22:16:58.466Z,15.95
2018-12-18T22:19:26.662Z,17.40
2018-12-18T22:21:54.973Z,15.75
2018-12-18T22:24:23.420Z,16.52
2018-12-18T22:26:51.823Z,16.48
2018-12-18T22:29:20.154Z,19.20
2018-12-18T22:31:48.946Z,18.23
2018-12-18T22:34:17.306Z,15.93
2018-12-18T22:36:45.572Z,17.60
2018-12-18T22:39:13.891Z,16.37
2018-12-18T22:41:42.117Z,15.40
2018-12-18T22:44:10.471Z,17.00
2018-12-18T22:46:38.689Z,15.95
2018-12-18T22:49:06.920Z,18.37
2018-12-18T22:51:35.398Z,19.73
2018-12-18T22:54:03.650Z,18.48
2018-12-18T22:56:32.209Z,17.73
2018-12-18T22:59:00.543Z,14.93
2018-12-18T23:01:40.925Z,27.00
2018-12-18T23:04:09.257Z,20.55
2018-12-18T23:06:38.051Z,22.25
2018-12-18T23:09:09.514Z,24.67
2018-12-18T23:11:37.696Z,25.60
2018-12-18T23:14:06.304Z,25.17
2018-12-18T23:16:34.652Z,18.67
2018-12-18T23:19:03.119Z,21.48
2018-12-18T23:21:31.779Z,22.15
2018-12-18T23:24:00.040Z,21.17
2018-12-18T23:26:28.449Z,21.17
2018-12-18T23:28:56.988Z,21.87
2018-12-18T23:31:25.512Z,21.45
2018-12-18T23:33:53.768Z,19.65
2018-12-18T23:36:22.047Z,22.80
2018-12-18T23:38:56.721Z,25.95
2018-12-18T23:41:20.700Z,23.62
2018-12-18T23:43:48.847Z,23.52
2018-12-18T23:46:17.182Z,24.50
2018-12-18T23:48:45.417Z,21.25
2018-12-18T23:51:13.773Z,24.43
2018-12-18T23:53:42.426Z,23.05
2018-12-18T23:56:11.009Z,20.95
2018-12-18T23:58:39.945Z,21.45
